Orbital elements of COSMOS 1275 DEB
| Launched | 3 June 1981 |
| Flight ended | – |
| Launch site | Plesetsk Missile and Space Complex, Russia |
| Owner | Commonwealth of Independent States (former USSR) |
| NORAD ID | 42134 |
| Date fetched |
Epoch osculation |
Inc. [°] |
Ecc. | RA asc node [hr] |
Arg Peri. [°] |
Mean anom [°] |
Mean motion [rev/day] |
Abs. mag |
| Date fetched |
Epoch osculation |
Inc. [°] |
Ecc. | RA asc node [hr] |
Arg Peri. [°] |
Mean anom [°] |
Mean motion [rev/day] |
Abs. mag |
| 2026 May 03 17:57 | 2026 Apr 29 02:04:49 | 83.0065 | 0.01677 | 16.8790 | 13.0490 | 347.4914 | 13.56220 | – |
| 2026 May 02 17:57 | 2026 Apr 29 02:04:49 | 83.0065 | 0.01677 | 16.8790 | 13.0490 | 347.4914 | 13.56220 | – |
| 2026 May 01 17:56 | 2026 Apr 29 02:04:49 | 83.0065 | 0.01677 | 16.8790 | 13.0490 | 347.4914 | 13.56220 | – |
| 2026 Apr 30 17:56 | 2026 Apr 29 02:04:49 | 83.0065 | 0.01677 | 16.8790 | 13.0490 | 347.4914 | 13.56220 | – |
| 2026 Apr 29 17:57 | 2026 Apr 22 16:02:22 | 83.0059 | 0.01688 | 17.1834 | 30.6209 | 347.4914 | 13.56220 | – |
| 2026 Apr 28 17:56 | 2026 Apr 22 16:02:22 | 83.0059 | 0.01688 | 17.1834 | 30.6209 | 347.4914 | 13.56220 | – |
| 2026 Apr 27 17:58 | 2026 Apr 22 16:02:22 | 83.0059 | 0.01688 | 17.1834 | 30.6209 | 347.4914 | 13.56220 | – |
| 2026 Apr 26 17:58 | 2026 Apr 22 16:02:22 | 83.0059 | 0.01688 | 17.1834 | 30.6209 | 347.4914 | 13.56220 | – |
| 2026 Apr 25 17:58 | 2026 Apr 22 16:02:22 | 83.0059 | 0.01688 | 17.1834 | 30.6209 | 347.4914 | 13.56220 | – |
| 2026 Apr 24 17:59 | 2026 Apr 22 16:02:22 | 83.0059 | 0.01688 | 17.1834 | 30.6209 | 347.4914 | 13.56220 | – |
| 2026 Apr 23 17:57 | 2026 Apr 18 04:01:56 | 83.0050 | 0.01696 | 17.3968 | 42.8653 | 347.4914 | 13.56220 | – |
| 2026 Apr 22 17:57 | 2026 Apr 18 04:01:56 | 83.0050 | 0.01696 | 17.3968 | 42.8653 | 347.4914 | 13.56220 | – |
| 2026 Apr 21 17:57 | 2026 Apr 18 04:01:56 | 83.0050 | 0.01696 | 17.3968 | 42.8653 | 347.4914 | 13.56220 | – |
| 2026 Apr 20 17:57 | 2026 Apr 18 04:01:56 | 83.0050 | 0.01696 | 17.3968 | 42.8653 | 347.4914 | 13.56220 | – |
| 2026 Apr 19 17:58 | 2026 Apr 18 04:01:56 | 83.0050 | 0.01696 | 17.3968 | 42.8653 | 347.4914 | 13.56220 | – |
| 2026 Apr 18 17:56 | 2026 Apr 12 04:36:42 | 83.0060 | 0.01710 | 17.6802 | 59.0273 | 347.4914 | 13.56220 | – |
| 2026 Apr 16 17:57 | 2026 Apr 12 04:36:42 | 83.0060 | 0.01710 | 17.6802 | 59.0273 | 347.4914 | 13.56220 | – |
| 2026 Apr 14 17:57 | 2026 Apr 12 04:36:42 | 83.0060 | 0.01710 | 17.6802 | 59.0273 | 347.4914 | 13.56220 | – |
| 2026 Apr 13 17:57 | 2026 Apr 12 04:36:42 | 83.0060 | 0.01710 | 17.6802 | 59.0273 | 347.4914 | 13.56220 | – |
| 2026 Apr 12 17:57 | 2026 Apr 08 04:59:49 | 83.0067 | 0.01717 | 17.8692 | 69.6863 | 347.4914 | 13.56220 | – |
| 2026 Apr 11 17:57 | 2026 Apr 08 04:59:49 | 83.0067 | 0.01717 | 17.8692 | 69.6863 | 347.4914 | 13.56220 | – |
| 2026 Apr 10 17:58 | 2026 Apr 08 04:59:49 | 83.0067 | 0.01717 | 17.8692 | 69.6863 | 347.4914 | 13.56220 | – |
| 2026 Apr 09 18:01 | 2026 Apr 08 04:59:49 | 83.0067 | 0.01717 | 17.8692 | 69.6863 | 347.4914 | 13.56220 | – |
| 2026 Apr 08 17:57 | 2026 Apr 08 04:59:49 | 83.0067 | 0.01717 | 17.8692 | 69.6863 | 347.4914 | 13.56220 | – |
| 2026 Apr 07 17:57 | 2026 Apr 01 22:29:23 | 83.0028 | 0.01723 | 18.1664 | 86.4770 | 347.4914 | 13.56220 | – |
| 2026 Apr 06 17:57 | 2026 Apr 01 22:29:23 | 83.0028 | 0.01723 | 18.1664 | 86.4770 | 347.4914 | 13.56220 | – |